createdAt,value
2018-02-11T00:00:30.068Z,101.80
2018-02-11T00:02:58.764Z,94.07
2018-02-11T00:05:27.439Z,98.67
2018-02-11T00:07:56.133Z,104.40
2018-02-11T00:10:24.717Z,102.43
2018-02-11T00:12:53.525Z,106.57
2018-02-11T00:15:22.486Z,105.20
2018-02-11T00:17:51.741Z,103.87
2018-02-11T00:20:20.360Z,96.77
2018-02-11T00:22:48.976Z,96.03
2018-02-11T00:25:17.648Z,97.00
2018-02-11T00:27:46.474Z,95.70
2018-02-11T00:30:15.226Z,98.67
2018-02-11T00:32:43.807Z,98.00
2018-02-11T00:35:12.477Z,98.53
2018-02-11T00:37:46.850Z,98.03
2018-02-11T00:40:15.885Z,95.00
2018-02-11T00:42:44.487Z,104.23
2018-02-11T00:45:13.089Z,91.37
2018-02-11T00:47:41.808Z,92.73
2018-02-11T00:50:11.057Z,95.77
2018-02-11T00:52:39.743Z,93.47
2018-02-11T00:55:08.429Z,95.73
2018-02-11T00:57:37.218Z,94.77
2018-02-11T01:00:06.007Z,109.40
2018-02-11T01:02:34.528Z,103.03
2018-02-11T01:05:03.227Z,91.27
2018-02-11T01:07:31.963Z,95.80
2018-02-11T01:10:00.550Z,88.80
2018-02-11T01:12:29.149Z,84.03
2018-02-11T01:14:57.832Z,91.83
2018-02-11T01:17:26.494Z,84.07
2018-02-11T01:19:55.182Z,88.80
2018-02-11T01:22:23.776Z,96.47
2018-02-11T01:24:52.458Z,98.17
2018-02-11T01:27:21.252Z,101.27
2018-02-11T01:29:50.178Z,85.63
2018-02-11T01:32:18.811Z,85.03
2018-02-11T01:34:48.279Z,85.57
2018-02-11T01:37:16.948Z,80.00
2018-02-11T01:39:46.009Z,89.20
2018-02-11T01:42:14.670Z,94.07
2018-02-11T01:44:43.176Z,86.40
2018-02-11T01:47:11.913Z,75.63
2018-02-11T01:49:40.567Z,86.00
2018-02-11T01:52:09.232Z,91.17
2018-02-11T01:54:37.930Z,96.33
2018-02-11T01:57:06.611Z,91.10
2018-02-11T01:59:35.229Z,83.13
2018-02-11T02:02:04.401Z,86.50
2018-02-11T02:04:33.010Z,85.53
2018-02-11T02:07:02.339Z,89.07
2018-02-11T02:09:31.082Z,78.13
2018-02-11T02:11:59.861Z,79.17
2018-02-11T02:14:28.532Z,88.47
2018-02-11T02:16:57.134Z,79.07
2018-02-11T02:19:25.926Z,88.37
2018-02-11T02:21:54.500Z,83.93
2018-02-11T02:24:23.380Z,94.87
2018-02-11T02:26:52.379Z,90.13
2018-02-11T02:29:21.244Z,95.30
2018-02-11T02:31:49.976Z,85.07
2018-02-11T02:34:18.749Z,91.53
2018-02-11T02:36:47.639Z,93.07
2018-02-11T02:39:16.325Z,101.27
2018-02-11T02:41:45.105Z,92.93
2018-02-11T02:44:13.825Z,94.60
2018-02-11T02:46:42.580Z,89.17
2018-02-11T02:49:11.299Z,87.70
2018-02-11T02:51:40.089Z,96.80
2018-02-11T02:54:08.972Z,90.70
2018-02-11T02:56:38.147Z,87.00
2018-02-11T02:59:07.099Z,88.90
2018-02-11T03:01:35.738Z,86.83
2018-02-11T03:04:04.609Z,101.30
2018-02-11T03:06:33.320Z,85.63
2018-02-11T03:09:02.191Z,90.00
2018-02-11T03:11:30.854Z,92.30
2018-02-11T03:13:59.573Z,91.20
2018-02-11T03:16:28.309Z,88.10
2018-02-11T03:18:57.340Z,87.70
2018-02-11T03:21:26.135Z,97.80
2018-02-11T03:23:54.766Z,88.73
2018-02-11T03:26:23.942Z,100.83
2018-02-11T03:28:52.705Z,84.27
2018-02-11T03:31:21.342Z,90.27
2018-02-11T03:33:50.079Z,85.70
2018-02-11T03:36:18.700Z,92.40
2018-02-11T03:38:47.412Z,97.27
2018-02-11T03:41:16.131Z,99.30
2018-02-11T03:43:44.846Z,93.23
2018-02-11T03:46:14.956Z,82.80
2018-02-11T03:48:43.646Z,92.00
2018-02-11T03:51:12.273Z,79.07
2018-02-11T03:53:41.809Z,91.47
2018-02-11T03:56:10.502Z,91.17
2018-02-11T03:58:39.178Z,83.20
2018-02-11T04:01:08.584Z,77.47
2018-02-11T04:03:37.285Z,87.60
2018-02-11T04:06:05.962Z,91.77
2018-02-11T04:08:34.560Z,80.00
2018-02-11T04:11:03.126Z,97.63
2018-02-11T04:13:31.811Z,84.50
2018-02-11T04:16:00.642Z,89.67
2018-02-11T04:18:29.291Z,81.23
2018-02-11T04:20:58.073Z,87.87
2018-02-11T04:23:26.601Z,94.50
2018-02-11T04:25:55.205Z,82.83
2018-02-11T04:28:23.876Z,80.10
2018-02-11T04:30:52.716Z,84.77
2018-02-11T04:33:21.137Z,85.77
2018-02-11T04:35:50.074Z,80.93
2018-02-11T04:38:18.542Z,78.63
2018-02-11T04:40:47.127Z,83.07
2018-02-11T04:43:15.883Z,85.27
2018-02-11T04:45:44.363Z,80.23
2018-02-11T04:48:12.848Z,88.10
2018-02-11T04:50:41.247Z,81.30
2018-02-11T04:53:10.029Z,91.03
2018-02-11T04:55:38.417Z,91.13
2018-02-11T04:58:07.181Z,82.63
2018-02-11T05:00:35.644Z,100.17
2018-02-11T05:03:04.145Z,85.60
2018-02-11T05:05:32.640Z,79.53
2018-02-11T05:08:01.402Z,90.33
2018-02-11T05:10:29.784Z,83.70
2018-02-11T05:12:58.176Z,82.50
2018-02-11T05:15:26.989Z,77.93
2018-02-11T05:17:55.363Z,78.17
2018-02-11T05:20:24.216Z,90.73
2018-02-11T05:22:52.766Z,80.20
2018-02-11T05:25:21.157Z,86.63
2018-02-11T05:27:49.538Z,93.97
2018-02-11T05:30:17.946Z,85.10
2018-02-11T05:32:46.359Z,84.20
2018-02-11T05:35:14.758Z,81.37
2018-02-11T05:37:43.546Z,85.17
2018-02-11T05:40:11.920Z,83.17
2018-02-11T05:42:41.162Z,90.73
2018-02-11T05:45:09.553Z,84.50
2018-02-11T05:47:37.955Z,90.67
2018-02-11T05:50:06.819Z,89.33
2018-02-11T05:52:36.124Z,67.47
2018-02-11T05:55:04.510Z,72.40
2018-02-11T05:57:32.890Z,73.93
2018-02-11T06:00:01.267Z,81.23
2018-02-11T06:02:29.689Z,91.57
2018-02-11T06:04:58.069Z,83.00
2018-02-11T06:07:26.454Z,82.87
2018-02-11T06:09:54.827Z,68.47
2018-02-11T06:12:23.241Z,81.23
2018-02-11T06:14:51.607Z,78.57
2018-02-11T06:17:20.069Z,76.33
2018-02-11T06:19:48.508Z,80.53
2018-02-11T06:22:16.876Z,80.67
2018-02-11T06:24:45.255Z,83.63
2018-02-11T06:27:13.629Z,79.37
2018-02-11T06:29:41.997Z,74.80
2018-02-11T06:32:10.388Z,73.90
2018-02-11T06:34:38.743Z,69.67
2018-02-11T06:37:07.120Z,67.80
2018-02-11T06:39:35.481Z,64.50
2018-02-11T06:42:03.870Z,72.93
2018-02-11T06:44:32.251Z,65.57
2018-02-11T06:47:00.660Z,75.57
2018-02-11T06:49:29.029Z,63.47
2018-02-11T06:51:57.435Z,66.23
2018-02-11T06:54:25.840Z,62.07
2018-02-11T06:56:54.250Z,60.33
2018-02-11T06:59:22.660Z,61.67
2018-02-11T07:01:51.147Z,62.70
2018-02-11T07:04:19.510Z,61.43
2018-02-11T07:06:47.908Z,63.00
2018-02-11T07:09:16.663Z,59.03
2018-02-11T07:11:45.055Z,57.07
2018-02-11T07:14:13.426Z,50.73
2018-02-11T07:16:42.103Z,53.03
2018-02-11T07:19:10.470Z,46.50
2018-02-11T07:21:38.849Z,57.77
2018-02-11T07:24:07.227Z,53.43
2018-02-11T07:26:35.674Z,43.77
2018-02-11T07:29:04.483Z,41.60
2018-02-11T07:31:32.879Z,40.13
2018-02-11T07:34:01.242Z,47.03
2018-02-11T07:36:29.613Z,38.80
2018-02-11T07:38:57.972Z,38.70
2018-02-11T07:41:26.869Z,34.60
2018-02-11T07:43:55.648Z,37.60
2018-02-11T07:46:24.422Z,38.20
2018-02-11T07:48:52.817Z,29.87
2018-02-11T07:51:21.648Z,34.17
2018-02-11T07:53:50.041Z,32.90
2018-02-11T07:56:18.420Z,35.13
2018-02-11T07:58:46.923Z,31.70
2018-02-11T08:01:15.337Z,34.30
2018-02-11T08:03:44.516Z,35.67
2018-02-11T08:06:14.865Z,30.70
2018-02-11T08:08:44.717Z,32.43
2018-02-11T08:11:15.207Z,31.90
2018-02-11T08:13:45.135Z,31.53
2018-02-11T08:16:15.005Z,27.33
2018-02-11T08:18:44.632Z,24.77
2018-02-11T08:21:13.456Z,26.37
2018-02-11T08:23:41.822Z,26.33
2018-02-11T08:26:10.208Z,22.30
2018-02-11T08:28:38.587Z,23.37
2018-02-11T08:31:06.969Z,33.00
2018-02-11T08:33:35.346Z,23.00
2018-02-11T08:36:03.737Z,24.40
2018-02-11T08:38:32.092Z,23.37
2018-02-11T08:41:00.539Z,26.03
2018-02-11T08:43:28.921Z,24.03
2018-02-11T08:45:57.730Z,24.23
2018-02-11T08:48:26.805Z,20.23
2018-02-11T08:50:58.676Z,20.63
2018-02-11T08:53:27.805Z,22.80
2018-02-11T08:55:58.477Z,22.43
2018-02-11T08:58:29.180Z,20.20
2018-02-11T09:00:59.808Z,23.37
2018-02-11T09:03:28.409Z,21.20
2018-02-11T09:05:58.224Z,21.60
2018-02-11T09:08:26.678Z,24.10
2018-02-11T09:10:57.131Z,21.40
2018-02-11T09:13:26.030Z,19.60
2018-02-11T09:15:56.366Z,18.23
2018-02-11T09:18:25.989Z,17.97
2018-02-11T09:20:56.355Z,19.93
2018-02-11T09:23:25.376Z,19.33
2018-02-11T09:25:55.940Z,19.20
2018-02-11T09:28:26.372Z,13.20
2018-02-11T09:30:55.656Z,15.87
2018-02-11T09:33:25.619Z,14.33
2018-02-11T09:35:54.081Z,16.30
2018-02-11T09:38:24.695Z,16.73
2018-02-11T09:40:53.796Z,17.63
2018-02-11T09:43:23.089Z,16.40
2018-02-11T09:45:53.820Z,22.10
2018-02-11T09:48:24.377Z,22.53
2018-02-11T09:50:54.360Z,18.17
2018-02-11T09:53:23.136Z,20.20
2018-02-11T09:55:51.551Z,16.20
2018-02-11T09:58:19.989Z,18.07
2018-02-11T10:00:48.415Z,24.37
2018-02-11T10:03:17.198Z,23.20
2018-02-11T10:05:45.961Z,16.67
2018-02-11T10:08:14.389Z,17.80
2018-02-11T10:10:42.792Z,14.90
2018-02-11T10:13:11.254Z,16.00
2018-02-11T10:15:39.615Z,14.67
2018-02-11T10:18:08.221Z,16.53
2018-02-11T10:20:36.585Z,17.40
2018-02-11T10:23:04.944Z,13.53
2018-02-11T10:25:33.786Z,14.33
2018-02-11T10:28:02.144Z,11.20
2018-02-11T10:30:30.517Z,14.10
2018-02-11T10:32:58.869Z,12.87
2018-02-11T10:35:27.645Z,13.67
2018-02-11T10:37:56.009Z,11.20
2018-02-11T10:40:24.404Z,11.17
2018-02-11T10:42:53.177Z,20.53
2018-02-11T10:45:21.608Z,13.90
2018-02-11T10:47:50.017Z,11.80
2018-02-11T10:50:18.405Z,10.97
2018-02-11T10:52:46.764Z,9.80
2018-02-11T10:55:15.127Z,11.97
2018-02-11T10:57:43.477Z,11.60
2018-02-11T11:00:12.252Z,12.37
2018-02-11T11:02:40.630Z,12.70
2018-02-11T11:05:09.090Z,16.10
2018-02-11T11:07:37.499Z,14.07
2018-02-11T11:10:06.267Z,21.70
2018-02-11T11:12:34.623Z,21.80
2018-02-11T11:15:02.979Z,15.47
2018-02-11T11:17:31.341Z,15.90
2018-02-11T11:19:59.727Z,20.33
2018-02-11T11:22:28.088Z,45.10
2018-02-11T11:24:56.848Z,21.07
2018-02-11T11:27:25.246Z,51.30
2018-02-11T11:29:53.995Z,28.37
2018-02-11T11:32:22.363Z,19.70
2018-02-11T11:34:50.713Z,19.40
2018-02-11T11:37:19.085Z,14.50
2018-02-11T11:39:47.442Z,16.83
2018-02-11T11:42:16.220Z,19.60
2018-02-11T11:44:45.020Z,19.30
2018-02-11T11:47:13.394Z,15.57
2018-02-11T11:49:41.828Z,18.40
2018-02-11T11:52:10.190Z,12.43
2018-02-11T11:54:38.570Z,12.10
2018-02-11T11:57:06.941Z,12.73
2018-02-11T11:59:35.301Z,13.80
2018-02-11T12:02:04.083Z,13.80
2018-02-11T12:04:32.847Z,13.50
2018-02-11T12:07:01.215Z,14.13
2018-02-11T12:09:29.574Z,19.40
2018-02-11T12:11:57.928Z,12.90
2018-02-11T12:14:26.275Z,10.60
2018-02-11T12:16:54.637Z,11.33
2018-02-11T12:19:22.995Z,15.17
2018-02-11T12:24:49.766Z,12.37
2018-02-11T12:27:18.129Z,12.90
2018-02-11T12:29:46.492Z,20.20
2018-02-11T12:32:15.658Z,13.40
2018-02-11T12:34:44.387Z,11.60
2018-02-11T12:37:12.743Z,12.33
2018-02-11T12:39:41.088Z,11.50
2018-02-11T12:42:09.552Z,11.37
2018-02-11T12:44:37.900Z,14.10
2018-02-11T12:47:06.262Z,15.23
2018-02-11T12:49:34.602Z,13.77
2018-02-11T12:52:02.964Z,15.30
2018-02-11T12:54:31.300Z,13.63
2018-02-11T12:56:59.669Z,16.30
2018-02-11T12:59:28.015Z,13.70
2018-02-11T13:01:56.459Z,16.07
2018-02-11T13:04:24.833Z,15.23
2018-02-11T13:06:53.183Z,17.57
2018-02-11T13:09:21.527Z,19.00
2018-02-11T13:11:49.890Z,17.23
2018-02-11T13:14:18.235Z,22.13
2018-02-11T13:16:48.284Z,17.60
2018-02-11T13:19:16.637Z,17.40
2018-02-11T13:21:44.986Z,16.10
2018-02-11T13:24:13.335Z,23.73
2018-02-11T13:26:41.675Z,19.57
2018-02-11T13:29:10.369Z,17.50
2018-02-11T13:31:38.757Z,19.50
2018-02-11T13:34:07.109Z,17.37
2018-02-11T13:36:36.136Z,20.00
2018-02-11T13:39:04.507Z,18.40
2018-02-11T13:41:33.356Z,20.17
2018-02-11T13:44:01.875Z,18.10
2018-02-11T13:46:31.766Z,19.20
2018-02-11T13:49:00.419Z,21.90
2018-02-11T13:51:29.427Z,19.10
2018-02-11T13:53:58.261Z,22.10
2018-02-11T13:56:27.560Z,28.47
2018-02-11T13:58:56.288Z,20.87
2018-02-11T14:01:25.247Z,23.83
2018-02-11T14:03:54.132Z,24.20
2018-02-11T14:06:22.801Z,22.20
2018-02-11T14:08:51.993Z,27.43
2018-02-11T14:11:20.907Z,27.53
2018-02-11T14:13:50.802Z,22.00
2018-02-11T14:16:19.603Z,31.73
2018-02-11T14:18:48.501Z,28.67
2018-02-11T14:21:17.318Z,31.83
2018-02-11T14:23:46.643Z,28.90
2018-02-11T14:26:15.396Z,33.53
2018-02-11T14:28:45.218Z,35.17
2018-02-11T14:31:15.277Z,35.20
2018-02-11T14:33:44.582Z,26.77
2018-02-11T14:36:12.995Z,30.97
2018-02-11T14:38:41.352Z,25.97
2018-02-11T14:41:09.705Z,34.80
2018-02-11T14:43:38.189Z,36.10
2018-02-11T14:46:06.543Z,32.57
2018-02-11T14:48:35.279Z,35.83
2018-02-11T14:51:03.633Z,35.33
2018-02-11T14:53:31.989Z,37.07
2018-02-11T14:56:00.797Z,41.07
2018-02-11T14:58:29.148Z,32.30
2018-02-11T15:00:57.905Z,39.13
2018-02-11T15:03:26.253Z,31.10
2018-02-11T15:05:55.042Z,39.97
2018-02-11T15:08:23.401Z,32.40
2018-02-11T15:10:51.791Z,39.40
2018-02-11T15:13:20.388Z,36.33
2018-02-11T15:15:48.754Z,40.77
2018-02-11T15:18:17.116Z,37.63
2018-02-11T15:20:46.578Z,48.87
2018-02-11T15:23:15.254Z,38.77
2018-02-11T15:25:43.633Z,36.33
2018-02-11T15:28:13.513Z,34.93
2018-02-11T15:30:42.229Z,38.50
2018-02-11T15:33:10.637Z,36.60
2018-02-11T15:35:40.493Z,34.10
2018-02-11T15:38:08.937Z,35.00
2018-02-11T15:40:38.525Z,32.90
2018-02-11T15:43:07.407Z,32.60
2018-02-11T15:45:37.225Z,36.93
2018-02-11T15:48:06.088Z,30.43
2018-02-11T15:50:35.074Z,33.00
2018-02-11T15:53:04.303Z,40.10
2018-02-11T15:55:32.673Z,29.30
2018-02-11T15:58:01.033Z,38.77
2018-02-11T16:00:29.419Z,26.23
2018-02-11T16:02:57.772Z,30.43
2018-02-11T16:05:26.118Z,32.03
2018-02-11T16:07:54.460Z,29.53
2018-02-11T16:10:22.841Z,28.17
2018-02-11T16:12:51.191Z,26.00
2018-02-11T16:15:19.543Z,27.23
2018-02-11T16:17:48.311Z,24.80
2018-02-11T16:20:16.695Z,23.73
2018-02-11T16:22:45.059Z,28.47
2018-02-11T16:25:13.419Z,20.77
2018-02-11T16:27:41.789Z,32.97
2018-02-11T16:30:10.163Z,28.03
2018-02-11T16:32:42.223Z,18.93
2018-02-11T16:35:06.923Z,21.97
2018-02-11T16:37:35.299Z,21.03
2018-02-11T16:40:03.657Z,23.20
2018-02-11T16:42:32.068Z,23.20
2018-02-11T16:45:00.446Z,21.97
2018-02-11T16:47:28.825Z,24.00
2018-02-11T16:49:57.188Z,18.80
2018-02-11T16:52:25.582Z,23.40
2018-02-11T16:54:53.989Z,17.50
2018-02-11T16:57:22.348Z,20.10
2018-02-11T16:59:50.717Z,25.90
2018-02-11T17:02:19.082Z,18.40
2018-02-11T17:04:47.427Z,22.60
2018-02-11T17:07:16.200Z,19.57
2018-02-11T17:09:44.549Z,14.87
2018-02-11T17:12:14.012Z,17.93
2018-02-11T17:14:42.751Z,17.60
2018-02-11T17:17:11.121Z,13.57
2018-02-11T17:19:39.478Z,14.27
2018-02-11T17:22:08.054Z,17.97
2018-02-11T17:24:36.419Z,19.93
2018-02-11T17:27:04.828Z,13.60
2018-02-11T17:29:33.187Z,16.70
2018-02-11T17:32:01.620Z,16.03
2018-02-11T17:34:29.963Z,15.77
2018-02-11T17:36:58.343Z,13.87
2018-02-11T17:39:26.720Z,24.10
2018-02-11T17:41:55.086Z,17.40
2018-02-11T17:44:23.445Z,14.80
2018-02-11T17:46:52.407Z,37.47
2018-02-11T17:49:21.187Z,23.80
2018-02-11T17:51:49.627Z,19.70
2018-02-11T17:54:17.991Z,29.37
2018-02-11T17:56:46.414Z,15.10
2018-02-11T17:59:14.757Z,21.93
2018-02-11T18:01:43.119Z,28.50
2018-02-11T18:04:11.877Z,18.53
2018-02-11T18:06:40.278Z,13.60
2018-02-11T18:09:09.060Z,16.13
2018-02-11T18:11:37.416Z,14.00
2018-02-11T18:14:05.781Z,13.83
2018-02-11T18:16:34.159Z,14.50
2018-02-11T18:19:02.517Z,13.93
2018-02-11T18:21:30.885Z,12.63
2018-02-11T18:23:59.747Z,16.00
2018-02-11T18:26:28.503Z,24.73
2018-02-11T18:28:56.879Z,13.60
2018-02-11T18:31:25.248Z,18.83
2018-02-11T18:33:53.606Z,12.33
2018-02-11T18:36:22.026Z,16.10
2018-02-11T18:38:50.467Z,24.70
2018-02-11T18:41:18.838Z,21.77
2018-02-11T18:43:47.214Z,13.23
2018-02-11T18:46:15.576Z,11.93
2018-02-11T18:48:44.319Z,12.23
2018-02-11T18:51:12.689Z,12.53
2018-02-11T18:53:41.033Z,10.43
2018-02-11T18:56:09.379Z,16.73
2018-02-11T18:58:37.734Z,10.90
2018-02-11T19:01:06.087Z,11.13
2018-02-11T19:03:34.446Z,18.67
2018-02-11T19:06:02.838Z,22.67
2018-02-11T19:08:31.191Z,12.63
2018-02-11T19:10:59.946Z,10.80
2018-02-11T19:13:28.296Z,11.97
2018-02-11T19:15:56.652Z,11.77
2018-02-11T19:18:25.015Z,9.80
2018-02-11T19:20:53.797Z,9.30
2018-02-11T19:23:22.527Z,8.93
2018-02-11T19:25:50.892Z,9.77
2018-02-11T19:28:19.254Z,8.50
2018-02-11T19:30:47.632Z,10.03
2018-02-11T19:33:16.016Z,8.87
2018-02-11T19:35:44.380Z,9.93
2018-02-11T19:38:13.139Z,7.50
2018-02-11T19:40:41.513Z,9.00
2018-02-11T19:43:09.867Z,9.00
2018-02-11T19:45:38.256Z,8.73
2018-02-11T19:48:06.624Z,7.43
2018-02-11T19:50:34.995Z,9.20
2018-02-11T19:53:03.348Z,8.27
2018-02-11T19:55:31.713Z,8.07
2018-02-11T19:58:00.447Z,8.10
2018-02-11T20:00:28.814Z,7.50
2018-02-11T20:02:57.245Z,7.40
2018-02-11T20:05:25.590Z,9.30
2018-02-11T20:07:53.962Z,8.00
2018-02-11T20:10:22.352Z,8.57
2018-02-11T20:12:50.729Z,7.57
2018-02-11T20:15:19.107Z,7.53
2018-02-11T20:17:47.453Z,7.93
2018-02-11T20:20:15.830Z,8.97
2018-02-11T20:22:44.178Z,8.00
2018-02-11T20:25:12.539Z,9.10
2018-02-11T20:27:40.908Z,8.67
2018-02-11T20:30:09.265Z,12.40
2018-02-11T20:32:37.618Z,8.43
2018-02-11T20:35:05.987Z,9.30
2018-02-11T20:37:34.747Z,8.97
2018-02-11T20:40:03.124Z,8.17
2018-02-11T20:42:31.501Z,8.73
2018-02-11T20:44:59.863Z,13.30
2018-02-11T20:47:28.218Z,7.43
2018-02-11T20:49:56.599Z,9.33
2018-02-11T20:52:24.991Z,7.53
2018-02-11T20:54:53.340Z,10.33
2018-02-11T20:57:21.700Z,7.30
2018-02-11T20:59:50.468Z,8.93
2018-02-11T21:02:18.825Z,8.40
2018-02-11T21:04:47.216Z,8.97
2018-02-11T21:07:15.638Z,9.40
2018-02-11T21:09:43.992Z,9.70
2018-02-11T21:12:12.744Z,9.87
2018-02-11T21:14:41.104Z,9.83
2018-02-11T21:17:09.470Z,8.27
2018-02-11T21:19:37.845Z,9.37
2018-02-11T21:22:06.216Z,10.00
2018-02-11T21:24:34.585Z,10.63
2018-02-11T21:27:03.344Z,9.43
2018-02-11T21:29:31.696Z,10.77
2018-02-11T21:32:00.064Z,10.03
2018-02-11T21:34:28.488Z,9.27
2018-02-11T21:36:57.260Z,10.37
2018-02-11T21:39:25.658Z,11.03
2018-02-11T21:41:54.281Z,13.83
2018-02-11T21:44:22.635Z,10.80
2018-02-11T21:46:51.395Z,12.37
2018-02-11T21:49:19.856Z,11.20
2018-02-11T21:51:48.240Z,10.07
2018-02-11T21:54:16.611Z,11.03
2018-02-11T21:56:45.033Z,11.30
2018-02-11T21:59:13.882Z,10.80
2018-02-11T22:01:42.253Z,11.03
2018-02-11T22:04:11.155Z,11.33
2018-02-11T22:06:39.506Z,10.90
2018-02-11T22:09:07.860Z,11.47
2018-02-11T22:11:36.611Z,11.47
2018-02-11T22:14:05.002Z,11.57
2018-02-11T22:16:33.377Z,11.13
2018-02-11T22:19:01.785Z,12.97
2018-02-11T22:21:30.130Z,11.93
2018-02-11T22:23:58.550Z,11.10
2018-02-11T22:26:26.981Z,11.40
2018-02-11T22:28:55.331Z,11.53
2018-02-11T22:31:23.744Z,13.13
2018-02-11T22:33:52.144Z,13.00
2018-02-11T22:36:20.505Z,10.80
2018-02-11T22:38:48.856Z,12.20
2018-02-11T22:41:17.234Z,11.20
2018-02-11T22:43:45.614Z,12.63
2018-02-11T22:46:13.983Z,16.87
2018-02-11T22:48:42.371Z,12.60
2018-02-11T22:51:10.768Z,11.10
2018-02-11T22:53:39.193Z,11.00
2018-02-11T22:56:07.943Z,10.57
2018-02-11T22:58:36.282Z,10.53
2018-02-11T23:01:04.676Z,10.33
2018-02-11T23:03:33.076Z,11.43
2018-02-11T23:06:01.439Z,14.23
2018-02-11T23:08:29.786Z,11.40
2018-02-11T23:10:58.169Z,10.80
2018-02-11T23:13:26.555Z,12.00
2018-02-11T23:15:54.911Z,18.10
2018-02-11T23:18:23.759Z,12.30
2018-02-11T23:20:52.151Z,11.70
2018-02-11T23:23:20.524Z,14.00
2018-02-11T23:25:48.891Z,14.20
2018-02-11T23:28:17.244Z,11.07
2018-02-11T23:30:45.624Z,14.17
2018-02-11T23:33:13.977Z,12.43
2018-02-11T23:35:42.685Z,12.97
2018-02-11T23:38:11.266Z,13.63
2018-02-11T23:40:40.150Z,13.10
2018-02-11T23:43:08.745Z,17.37
2018-02-11T23:45:37.447Z,17.53
2018-02-11T23:48:06.081Z,21.00
2018-02-11T23:50:34.863Z,13.67
2018-02-11T23:53:04.476Z,19.20
2018-02-11T23:55:33.169Z,15.90
2018-02-11T23:58:01.765Z,25.67
